createdAt,value
2022-09-20T00:01:24.486Z,9.50
2022-09-20T00:03:52.945Z,9.60
2022-09-20T00:06:21.088Z,9.60
2022-09-20T00:08:48.341Z,9.60
2022-09-20T00:11:19.411Z,9.60
2022-09-20T00:13:47.142Z,9.60
2022-09-20T00:16:15.742Z,9.70
2022-09-20T00:18:42.541Z,9.70
2022-09-20T00:21:15.602Z,9.70
2022-09-20T00:23:42.357Z,9.70
2022-09-20T00:26:09.056Z,9.70
2022-09-20T00:28:35.806Z,9.70
2022-09-20T00:31:02.500Z,9.80
2022-09-20T00:33:49.187Z,9.80
2022-09-20T00:36:16.527Z,9.80
2022-09-20T00:38:43.263Z,9.80
2022-09-20T00:41:10.316Z,9.80
2022-09-20T00:43:44.881Z,9.80
2022-09-20T00:46:30.510Z,9.90
2022-09-20T00:49:03.070Z,9.80
2022-09-20T00:51:32.022Z,9.80
2022-09-20T00:54:01.339Z,9.80
2022-09-20T00:56:36.212Z,9.90
2022-09-20T00:59:15.451Z,9.90
2022-09-20T01:01:44.021Z,9.90
2022-09-20T01:04:11.471Z,9.80
2022-09-20T01:06:38.350Z,9.90
2022-09-20T01:09:05.628Z,9.80
2022-09-20T01:11:34.111Z,9.90
2022-09-20T01:14:01.047Z,9.90
2022-09-20T01:16:29.534Z,9.90
2022-09-20T01:18:57.469Z,9.90
2022-09-20T01:21:25.231Z,9.90
2022-09-20T01:23:56.565Z,9.90
2022-09-20T01:26:35.661Z,9.90
2022-09-20T01:29:08.705Z,9.90
2022-09-20T01:31:36.494Z,9.90
2022-09-20T01:34:14.857Z,9.90
2022-09-20T01:36:46.746Z,9.80
2022-09-20T01:39:25.686Z,9.80
2022-09-20T01:41:59.383Z,9.80
2022-09-20T01:44:38.193Z,9.70
2022-09-20T01:47:23.285Z,9.70
2022-09-20T01:49:55.878Z,9.70
2022-09-20T01:52:46.084Z,9.70
2022-09-20T01:55:19.054Z,9.70
2022-09-20T01:58:04.610Z,9.70
2022-09-20T02:00:51.595Z,9.70
2022-09-20T02:03:37.064Z,9.80
2022-09-20T02:06:23.337Z,9.80
2022-09-20T02:08:52.864Z,9.70
2022-09-20T02:11:20.732Z,9.80
2022-09-20T02:13:47.477Z,9.80
2022-09-20T02:16:20.123Z,9.80
2022-09-20T02:19:06.308Z,9.80
2022-09-20T02:21:33.055Z,9.90
2022-09-20T02:24:21.654Z,9.90
2022-09-20T02:27:03.416Z,9.90
2022-09-20T02:29:35.895Z,9.90
2022-09-20T02:32:17.765Z,9.90
2022-09-20T02:35:05.575Z,9.90
2022-09-20T02:37:47.419Z,9.90
2022-09-20T02:40:17.218Z,9.90
2022-09-20T02:43:05.051Z,9.90
2022-09-20T02:45:48.088Z,9.90
2022-09-20T02:48:16.637Z,9.80
2022-09-20T02:51:03.612Z,9.80
2022-09-20T02:53:35.042Z,9.80
2022-09-20T02:56:04.954Z,9.80
2022-09-20T02:58:40.756Z,9.80
2022-09-20T03:01:13.377Z,9.80
2022-09-20T03:03:45.317Z,9.80
2022-09-20T03:06:24.359Z,9.80
2022-09-20T03:08:58.366Z,9.80
2022-09-20T03:11:31.106Z,9.80
2022-09-20T03:14:10.516Z,9.80
2022-09-20T03:16:37.183Z,9.70
2022-09-20T03:19:22.943Z,9.70
2022-09-20T03:22:19.612Z,9.70
2022-09-20T03:24:55.275Z,9.70
2022-09-20T03:27:41.568Z,9.70
2022-09-20T03:30:17.040Z,9.80
2022-09-20T03:33:02.715Z,9.80
2022-09-20T03:35:49.556Z,9.90
2022-09-20T03:38:22.387Z,9.80
2022-09-20T03:41:04.419Z,9.80
2022-09-20T03:43:48.938Z,9.80
2022-09-20T03:46:21.610Z,9.80
2022-09-20T03:48:59.456Z,9.80
2022-09-20T03:51:33.956Z,9.90
2022-09-20T03:54:19.933Z,9.80
2022-09-20T03:56:55.861Z,9.80
2022-09-20T03:59:41.034Z,9.90
2022-09-20T04:02:27.128Z,9.80
2022-09-20T04:04:57.567Z,9.80
2022-09-20T04:07:24.259Z,9.90
2022-09-20T04:10:03.533Z,9.80
2022-09-20T04:12:49.307Z,9.80
2022-09-20T04:15:22.328Z,9.80
2022-09-20T04:18:04.153Z,9.90
2022-09-20T04:20:43.867Z,9.80
2022-09-20T04:23:18.301Z,9.90
2022-09-20T04:25:48.014Z,9.90
2022-09-20T04:28:21.876Z,9.80
2022-09-20T04:30:49.820Z,9.80
2022-09-20T04:33:31.974Z,9.80
2022-09-20T04:36:26.382Z,9.80
2022-09-20T04:39:16.194Z,9.80
2022-09-20T04:41:49.970Z,9.80
2022-09-20T04:44:31.861Z,9.80
2022-09-20T04:47:12.223Z,9.80
2022-09-20T04:49:57.458Z,9.80
2022-09-20T04:52:50.515Z,9.90
2022-09-20T04:55:35.954Z,9.80
2022-09-20T04:58:14.759Z,9.80
2022-09-20T05:01:00.947Z,9.80
2022-09-20T05:03:41.040Z,9.80
2022-09-20T05:06:11.310Z,9.80
2022-09-20T05:08:41.124Z,9.90
2022-09-20T05:11:20.059Z,9.80
2022-09-20T05:14:05.149Z,9.80
2022-09-20T05:16:40.703Z,9.80
2022-09-20T05:19:19.142Z,9.80
2022-09-20T05:21:50.049Z,9.80
2022-09-20T05:24:29.070Z,9.80
2022-09-20T05:27:03.965Z,9.80
2022-09-20T05:29:38.260Z,9.80
2022-09-20T05:32:23.265Z,9.90
2022-09-20T05:35:25.195Z,9.90
2022-09-20T05:38:35.784Z,9.90
2022-09-20T05:41:32.569Z,9.90
2022-09-20T05:44:25.146Z,9.90
2022-09-20T05:49:52.273Z,9.80
2022-09-20T05:52:41.661Z,9.80
2022-09-20T05:55:31.833Z,9.90
2022-09-20T05:58:05.352Z,9.90
2022-09-20T06:00:58.527Z,9.90
2022-09-20T06:03:45.550Z,9.90
2022-09-20T06:06:36.434Z,9.90
2022-09-20T06:09:05.690Z,10.00
2022-09-20T06:11:53.443Z,10.00
2022-09-20T06:14:39.370Z,10.00
2022-09-20T06:17:10.811Z,10.00
2022-09-20T06:19:58.413Z,10.00
2022-09-20T06:22:38.293Z,10.10
2022-09-20T06:25:08.594Z,10.10
2022-09-20T06:27:47.229Z,10.20
2022-09-20T06:30:22.404Z,10.20
2022-09-20T06:33:03.847Z,10.40
2022-09-20T06:35:38.661Z,10.40
2022-09-20T06:38:43.111Z,10.50
2022-09-20T06:41:31.178Z,10.60
2022-09-20T06:44:02.890Z,10.80
2022-09-20T06:46:30.779Z,11.00
2022-09-20T06:48:57.928Z,11.30
2022-09-20T06:51:26.460Z,11.50
2022-09-20T06:53:54.154Z,11.90
2022-09-20T06:56:23.211Z,12.30
2022-09-20T06:58:49.916Z,12.80
2022-09-20T07:01:29.027Z,13.60
2022-09-20T07:03:56.249Z,14.50
2022-09-20T07:06:23.275Z,15.40
2022-09-20T07:08:52.545Z,16.10
2022-09-20T07:11:19.629Z,17.00
2022-09-20T07:13:50.131Z,17.50
2022-09-20T07:16:17.167Z,18.30
2022-09-20T07:18:44.044Z,18.80
2022-09-20T07:21:14.998Z,19.30
2022-09-20T07:23:42.328Z,19.80
2022-09-20T07:26:17.114Z,19.70
2022-09-20T07:28:44.114Z,19.30
2022-09-20T07:31:11.175Z,18.80
2022-09-20T07:33:37.910Z,18.10
2022-09-20T07:36:04.761Z,17.40
2022-09-20T07:38:31.493Z,16.80
2022-09-20T07:40:59.758Z,16.30
2022-09-20T07:43:27.174Z,15.90
2022-09-20T07:45:56.023Z,15.50
2022-09-20T07:48:24.970Z,15.30
2022-09-20T07:50:52.617Z,15.20
2022-09-20T07:53:19.631Z,15.20
2022-09-20T07:56:03.266Z,15.20
2022-09-20T07:58:30.967Z,15.20
2022-09-20T08:01:01.191Z,15.20
2022-09-20T08:03:29.497Z,15.40
2022-09-20T08:06:00.671Z,15.60
2022-09-20T08:08:27.615Z,15.80
2022-09-20T08:11:02.159Z,16.10
2022-09-20T08:16:17.004Z,18.00
2022-09-20T08:18:47.366Z,19.00
2022-09-20T08:21:14.681Z,19.80
2022-09-20T08:23:42.484Z,20.50
2022-09-20T08:26:12.264Z,21.30
2022-09-20T08:28:39.510Z,22.00
2022-09-20T08:31:10.935Z,22.70
2022-09-20T08:33:40.856Z,23.00
2022-09-20T08:36:09.453Z,23.00
2022-09-20T08:41:26.441Z,23.30
2022-09-20T08:44:07.940Z,23.00
2022-09-20T08:46:37.931Z,22.40
2022-09-20T08:49:10.618Z,21.50
2022-09-20T08:51:41.792Z,20.70
2022-09-20T08:54:12.339Z,20.10
2022-09-20T08:56:39.176Z,19.50
2022-09-20T08:59:06.457Z,19.00
2022-09-20T09:01:33.599Z,18.60
2022-09-20T09:04:14.392Z,18.30
2022-09-20T09:06:49.094Z,17.90
2022-09-20T09:09:20.856Z,17.50
2022-09-20T09:11:51.427Z,17.30
2022-09-20T09:14:51.325Z,17.00
2022-09-20T09:17:27.417Z,16.90
2022-09-20T09:20:17.990Z,16.80
2022-09-20T09:22:51.552Z,16.80
2022-09-20T09:25:22.824Z,16.80
2022-09-20T09:27:51.416Z,17.00
2022-09-20T09:30:27.403Z,17.00
2022-09-20T09:33:14.057Z,17.00
2022-09-20T09:35:41.668Z,17.00
2022-09-20T09:38:19.778Z,16.90
2022-09-20T09:40:50.701Z,16.60
2022-09-20T09:43:24.315Z,16.40
2022-09-20T16:18:15.358Z,16.00
2022-09-20T16:20:42.239Z,16.00
2022-09-20T16:23:09.009Z,16.00
2022-09-20T16:25:36.190Z,15.90
2022-09-20T16:28:02.910Z,15.80
2022-09-20T16:30:29.655Z,15.70
2022-09-20T16:32:56.687Z,15.60
2022-09-20T16:35:23.385Z,15.50
2022-09-20T16:37:51.866Z,15.40
2022-09-20T16:40:18.645Z,15.40
2022-09-20T16:42:52.143Z,15.40
2022-09-20T16:45:19.352Z,15.30
2022-09-20T16:47:46.845Z,15.20
2022-09-20T16:50:13.587Z,15.20
2022-09-20T16:52:40.316Z,15.10
2022-09-20T16:55:07.953Z,15.10
2022-09-20T16:57:36.825Z,15.10
2022-09-20T17:00:03.928Z,15.00
2022-09-20T17:02:30.616Z,15.00
2022-09-20T17:04:57.428Z,14.90
2022-09-20T17:07:24.341Z,14.80
2022-09-20T17:09:51.077Z,14.70
2022-09-20T17:12:21.880Z,14.70
2022-09-20T17:14:48.612Z,14.60
2022-09-20T17:17:15.375Z,14.50
2022-09-20T17:19:42.482Z,14.50
2022-09-20T17:22:09.165Z,14.40
2022-09-20T17:24:35.862Z,14.30
2022-09-20T17:27:04.098Z,14.20
2022-09-20T17:29:31.465Z,14.10
2022-09-20T17:32:01.222Z,14.00
2022-09-20T17:34:29.718Z,13.90
2022-09-20T17:36:56.485Z,13.80
2022-09-20T17:39:23.442Z,13.70
2022-09-20T17:41:50.659Z,13.60
2022-09-20T17:44:17.584Z,13.50
2022-09-20T17:46:45.508Z,13.40
2022-09-20T17:49:13.533Z,13.30
2022-09-20T17:51:44.653Z,13.20
2022-09-20T17:54:14.866Z,13.10
2022-09-20T17:56:43.554Z,13.00
2022-09-20T17:59:11.350Z,13.00
2022-09-20T18:01:38.377Z,13.00
2022-09-20T18:04:06.243Z,12.90
2022-09-20T18:06:37.450Z,12.90
2022-09-20T18:09:05.795Z,12.80
2022-09-20T18:11:35.556Z,12.70
2022-09-20T18:14:02.967Z,12.70
2022-09-20T18:16:31.120Z,12.70
2022-09-20T18:18:59.962Z,12.70
2022-09-20T18:21:27.705Z,12.70
2022-09-20T18:23:59.936Z,12.60
2022-09-20T18:26:30.706Z,12.50
2022-09-20T18:29:09.609Z,12.50
2022-09-20T18:31:43.195Z,12.50
2022-09-20T18:34:20.548Z,12.40
2022-09-20T18:36:54.190Z,12.40
2022-09-20T18:39:21.962Z,12.30
2022-09-20T18:41:50.315Z,12.30
2022-09-20T18:44:18.589Z,12.20
2022-09-20T18:46:46.152Z,12.20
2022-09-20T18:49:14.741Z,12.20
2022-09-20T18:51:44.815Z,12.20
2022-09-20T18:54:11.642Z,12.10
2022-09-20T18:56:42.626Z,12.10
2022-09-20T18:59:14.314Z,12.10
2022-09-20T19:01:52.842Z,12.00
2022-09-20T19:04:40.359Z,12.00
2022-09-20T19:07:28.140Z,11.80
2022-09-20T19:09:59.741Z,11.80
2022-09-20T19:12:32.968Z,11.70
2022-09-20T19:15:05.613Z,11.70
2022-09-20T19:17:41.099Z,11.60
2022-09-20T19:20:16.261Z,11.60
2022-09-20T19:23:01.559Z,11.50
2022-09-20T19:25:43.380Z,11.40
2022-09-20T19:28:10.933Z,11.40
2022-09-20T19:30:40.519Z,11.40
2022-09-20T19:33:15.211Z,11.40
2022-09-20T19:35:48.713Z,11.30
2022-09-20T19:38:22.683Z,11.20
2022-09-20T19:41:00.200Z,11.10
2022-09-20T19:43:35.311Z,11.20
2022-09-20T19:46:23.561Z,11.10
2022-09-20T19:48:57.832Z,11.00
2022-09-20T19:51:26.078Z,11.00
2022-09-20T19:53:53.571Z,10.90
2022-09-20T19:56:25.625Z,10.90
2022-09-20T19:58:56.370Z,10.90
2022-09-20T20:01:23.925Z,10.90
2022-09-20T20:03:51.302Z,10.90
2022-09-20T20:06:26.941Z,10.90
2022-09-20T20:09:15.345Z,10.90
2022-09-20T20:12:00.389Z,11.00
2022-09-20T20:14:30.163Z,11.00
2022-09-20T20:17:02.961Z,11.00
2022-09-20T20:19:51.275Z,10.90
2022-09-20T20:22:22.783Z,10.90
2022-09-20T20:24:53.534Z,10.90
2022-09-20T20:27:20.754Z,10.90
2022-09-20T20:29:47.450Z,10.90
2022-09-20T20:32:15.135Z,10.90
2022-09-20T20:34:42.033Z,10.90
2022-09-20T20:37:08.871Z,10.90
2022-09-20T20:39:35.583Z,10.70
2022-09-20T20:42:03.113Z,10.70
2022-09-20T20:44:38.393Z,10.60
2022-09-20T20:47:06.015Z,10.50
2022-09-20T20:49:33.187Z,10.50
2022-09-20T20:52:04.311Z,10.50
2022-09-20T20:54:32.163Z,10.50
2022-09-20T20:56:59.384Z,10.50
2022-09-20T20:59:26.163Z,10.50
2022-09-20T21:01:52.942Z,10.50
2022-09-20T21:04:20.044Z,10.50
2022-09-20T21:06:46.862Z,10.50
2022-09-20T21:09:13.609Z,10.50
2022-09-20T21:11:44.418Z,10.50
2022-09-20T21:14:12.766Z,10.40
2022-09-20T21:16:43.252Z,10.40
2022-09-20T21:19:13.069Z,10.40
2022-09-20T21:21:40.329Z,10.40
2022-09-20T21:24:09.093Z,10.50
2022-09-20T21:26:37.342Z,10.40
2022-09-20T21:29:10.624Z,10.30
2022-09-20T21:31:40.050Z,10.30
2022-09-20T21:34:08.538Z,10.20
2022-09-20T21:36:36.685Z,10.20
